Time;durP1;ratioP1;P1;durP2;ratioP2;P2;SDS_P1;SDS_P2;PMS_P1;PMS_P2;Temp;Humidity;BMP_temperature;BMP_pressure;BME280_temperature;BME280_humidity;BME280_pressure;Samples;Min_cycle;Max_cycle;Signal;HPM_P1;HPM_P2
2023/12/10 00:00:42;;;;;;;30.65;6.65;;;9.60;99.90;;;;;;5046759;28;20071;-70
2023/12/10 00:03:08;;;;;;;26.70;5.57;;;9.70;99.90;;;;;;5033300;28;20063;-70
2023/12/10 00:05:33;;;;;;;25.90;5.53;;;9.70;99.90;;;;;;5046240;28;20397;-70
2023/12/10 00:07:59;;;;;;;21.83;4.32;;;9.70;99.90;;;;;;5047056;28;20578;-70
2023/12/10 00:10:25;;;;;;;25.77;4.80;;;9.80;99.90;;;;;;5047047;28;20431;-70
2023/12/10 00:12:51;;;;;;;37.15;5.50;;;9.80;99.90;;;;;;5047287;28;20482;-70
2023/12/10 00:15:16;;;;;;;27.50;4.30;;;9.80;99.90;;;;;;5045149;28;20021;-70
2023/12/10 00:17:42;;;;;;;35.88;5.75;;;9.90;99.90;;;;;;5047076;28;20421;-70
2023/12/10 00:20:08;;;;;;;28.50;5.95;;;9.90;99.90;;;;;;5046485;28;20382;-70
2023/12/10 00:22:34;;;;;;;30.33;4.90;;;9.80;99.90;;;;;;5046632;28;20032;-71
2023/12/10 00:25:00;;;;;;;32.03;5.70;;;9.90;99.90;;;;;;5046669;28;20024;-70
2023/12/10 00:27:25;;;;;;;36.38;5.38;;;9.90;99.90;;;;;;5046587;28;20044;-70
2023/12/10 00:29:52;;;;;;;29.98;4.95;;;9.90;99.90;;;;;;5046305;28;20036;-71
2023/12/10 00:32:17;;;;;;;35.60;5.70;;;10.00;99.90;;;;;;5046653;28;20033;-70
2023/12/10 00:34:43;;;;;;;28.98;5.80;;;10.00;99.90;;;;;;5046391;28;20091;-70
2023/12/10 00:37:09;;;;;;;30.45;5.70;;;10.00;99.90;;;;;;5046257;28;20100;-70
2023/12/10 00:39:35;;;;;;;30.95;5.40;;;9.90;99.90;;;;;;5046246;28;20023;-70
2023/12/10 00:42:01;;;;;;;29.15;6.15;;;9.90;99.90;;;;;;5044963;28;20066;-71
2023/12/10 00:44:28;;;;;;;29.80;5.57;;;9.80;99.90;;;;;;5046849;28;20398;-70
2023/12/10 00:46:54;;;;;;;31.88;6.00;;;9.70;99.90;;;;;;5046306;28;20029;-71
2023/12/10 00:49:20;;;;;;;33.05;5.60;;;9.70;99.90;;;;;;5046242;28;20584;-71
2023/12/10 00:51:45;;;;;;;26.25;5.28;;;9.60;99.90;;;;;;5046104;28;20087;-71
2023/12/10 00:54:11;;;;;;;32.22;6.03;;;9.60;99.90;;;;;;5046373;28;20079;-71
2023/12/10 00:56:37;;;;;;;33.15;5.85;;;9.50;99.90;;;;;;5044262;28;20029;-71
2023/12/10 00:59:03;;;;;;;35.25;6.45;;;9.50;99.90;;;;;;5046306;28;20095;-70
2023/12/10 01:01:28;;;;;;;28.45;5.63;;;9.50;99.90;;;;;;5046022;28;20040;-70
2023/12/10 01:03:54;;;;;;;41.08;6.88;;;9.40;99.90;;;;;;5046557;28;20025;-70
2023/12/10 01:06:20;;;;;;;33.78;5.63;;;9.40;99.90;;;;;;5045950;28;20037;-70
2023/12/10 01:08:45;;;;;;;26.63;5.13;;;9.40;99.90;;;;;;5046444;28;20032;-69
2023/12/10 01:11:11;;;;;;;30.13;5.70;;;9.40;99.90;;;;;;5044484;28;20021;-69
2023/12/10 01:13:37;;;;;;;32.63;5.47;;;9.40;99.90;;;;;;5048946;28;20035;-68
2023/12/10 01:16:04;;;;;;;32.40;5.57;;;9.40;99.90;;;;;;5049968;28;20623;-69
2023/12/10 01:18:32;;;;;;;27.45;5.53;;;9.30;99.90;;;;;;5048923;28;20029;-69
2023/12/10 01:20:58;;;;;;;26.27;5.57;;;9.30;99.90;;;;;;5048421;28;20055;-69
2023/12/10 01:23:24;;;;;;;32.53;6.38;;;9.30;99.90;;;;;;5050047;28;20052;-69
2023/12/10 01:25:50;;;;;;;28.95;5.53;;;9.30;99.90;;;;;;5049495;28;20043;-69
2023/12/10 01:28:15;;;;;;;31.83;6.43;;;9.30;99.90;;;;;;5048587;28;20025;-70
2023/12/10 01:30:41;;;;;;;30.40;4.90;;;9.30;99.90;;;;;;5049917;28;20032;-70
2023/12/10 01:33:07;;;;;;;27.90;4.95;;;9.20;99.90;;;;;;5050041;28;20436;-70
2023/12/10 01:35:33;;;;;;;26.58;5.55;;;9.20;99.90;;;;;;5049342;28;20045;-69
2023/12/10 01:37:59;;;;;;;33.58;5.00;;;9.20;99.90;;;;;;5048560;28;20024;-70
2023/12/10 01:40:25;;;;;;;29.38;4.57;;;9.20;99.90;;;;;;5049850;28;20484;-70
2023/12/10 01:42:50;;;;;;;28.38;4.28;;;9.20;99.90;;;;;;5049888;28;20108;-70
2023/12/10 01:45:19;;;;;;;33.60;5.15;;;9.20;99.90;;;;;;5049447;28;20044;-70
2023/12/10 01:47:47;;;;;;;32.70;5.07;;;9.20;99.90;;;;;;5049550;28;20079;-69
2023/12/10 01:50:13;;;;;;;33.00;5.40;;;9.20;99.90;;;;;;5049344;28;20036;-70
2023/12/10 01:52:41;;;;;;;32.50;5.18;;;9.20;99.90;;;;;;5049230;28;20478;-70
2023/12/10 01:55:09;;;;;;;29.05;5.20;;;9.20;99.90;;;;;;5049208;28;20078;-70
2023/12/10 01:57:35;;;;;;;27.00;4.93;;;9.20;99.90;;;;;;5047861;28;20577;-69
2023/12/10 02:00:05;;;;;;;31.02;6.13;;;9.20;99.90;;;;;;5049235;28;20108;-69
2023/12/10 02:02:33;;;;;;;27.17;4.88;;;9.10;99.90;;;;;;5049253;28;20017;-69
2023/12/10 02:05:04;;;;;;;28.67;5.15;;;9.10;99.90;;;;;;5049354;28;20099;-69
2023/12/10 02:07:30;;;;;;;27.13;4.20;;;9.10;99.90;;;;;;5049125;28;20028;-69
2023/12/10 02:09:55;;;;;;;29.00;6.30;;;9.10;99.90;;;;;;5047581;28;20031;-68
2023/12/10 02:12:21;;;;;;;26.25;4.18;;;9.10;99.90;;;;;;5048877;28;20482;-69
2023/12/10 02:14:48;;;;;;;24.13;5.22;;;9.00;99.90;;;;;;5049075;28;20056;-69
2023/12/10 02:17:14;;;;;;;26.67;4.65;;;9.00;99.90;;;;;;5048816;28;20025;-69
2023/12/10 02:19:39;;;;;;;20.20;4.28;;;9.00;99.90;;;;;;5048958;28;20094;-69
2023/12/10 02:22:05;;;;;;;24.15;4.35;;;9.00;99.90;;;;;;5048636;28;20514;-69
2023/12/10 02:24:50;;;;;;;25.38;4.78;;;9.00;99.90;;;;;;5048427;28;20028;-69
2023/12/10 02:27:17;;;;;;;24.75;4.00;;;9.00;99.90;;;;;;5037517;28;20021;-69
2023/12/10 02:29:43;;;;;;;21.08;4.13;;;8.90;99.90;;;;;;5048766;28;20032;-69
2023/12/10 02:32:08;;;;;;;26.35;3.95;;;8.90;99.90;;;;;;5048506;28;20421;-69
2023/12/10 02:34:35;;;;;;;29.00;5.03;;;8.90;99.90;;;;;;5048626;28;20036;-69
2023/12/10 02:37:02;;;;;;;26.48;5.28;;;8.90;99.90;;;;;;5046968;28;20033;-69
2023/12/10 02:39:28;;;;;;;25.30;4.95;;;8.90;99.90;;;;;;5048558;28;20020;-69
2023/12/10 02:41:53;;;;;;;30.35;5.35;;;8.90;99.90;;;;;;5048422;28;20478;-69
2023/12/10 02:44:19;;;;;;;33.17;4.45;;;8.90;99.90;;;;;;5048700;28;20612;-69
2023/12/10 02:46:47;;;;;;;28.10;4.53;;;8.90;99.90;;;;;;5048092;28;20024;-68
2023/12/10 02:49:13;;;;;;;25.13;5.10;;;8.80;99.90;;;;;;5048251;28;20031;-68
2023/12/10 02:51:39;;;;;;;33.67;5.68;;;8.80;99.90;;;;;;5047946;28;20033;-68
2023/12/10 02:54:04;;;;;;;29.08;4.28;;;8.80;99.90;;;;;;5048696;28;20017;-68
2023/12/10 02:56:30;;;;;;;33.30;5.22;;;8.80;99.90;;;;;;5046651;28;20098;-68
2023/12/10 02:58:56;;;;;;;31.17;4.53;;;8.80;99.90;;;;;;5048099;28;20108;-68
2023/12/10 03:01:22;;;;;;;33.78;4.65;;;8.70;99.90;;;;;;5048232;28;20024;-68
2023/12/10 03:03:47;;;;;;;30.23;4.55;;;8.70;99.90;;;;;;5048384;28;20550;-68
2023/12/10 03:06:13;;;;;;;19.33;3.35;;;8.70;99.90;;;;;;5047815;28;20032;-68
2023/12/10 03:08:39;;;;;;;22.75;4.28;;;8.60;99.90;;;;;;5048073;28;20025;-69
2023/12/10 03:11:04;;;;;;;25.20;4.00;;;8.60;99.90;;;;;;5047736;28;20112;-69
2023/12/10 03:13:30;;;;;;;23.70;4.32;;;8.60;99.90;;;;;;5048351;28;20912;-69
2023/12/10 03:15:56;;;;;;;28.83;4.93;;;8.60;99.90;;;;;;5047856;28;20025;-69
2023/12/10 03:18:21;;;;;;;31.85;4.95;;;8.60;99.90;;;;;;5048055;28;20032;-69
2023/12/10 03:20:47;;;;;;;30.55;4.97;;;8.60;99.90;;;;;;5047376;28;20104;-68
2023/12/10 03:23:13;;;;;;;31.52;5.15;;;8.60;99.90;;;;;;5046346;28;20048;-68
2023/12/10 03:25:39;;;;;;;37.05;4.90;;;8.50;99.90;;;;;;5046450;28;20029;-69
2023/12/10 03:28:04;;;;;;;32.90;4.85;;;8.50;99.90;;;;;;5047656;28;20029;-68
2023/12/10 03:30:30;;;;;;;30.38;5.85;;;8.50;99.90;;;;;;5047709;28;20032;-69
2023/12/10 03:32:56;;;;;;;31.08;4.90;;;8.50;99.90;;;;;;5047369;28;20052;-69
2023/12/10 03:35:21;;;;;;;34.22;5.57;;;8.50;99.90;;;;;;5046882;28;20044;-68
2023/12/10 03:37:47;;;;;;;28.25;4.80;;;8.50;99.90;;;;;;5046463;28;20078;-69
2023/12/10 03:40:13;;;;;;;26.40;4.43;;;8.50;99.90;;;;;;5047326;28;20043;-69
2023/12/10 03:42:39;;;;;;;40.95;5.53;;;8.50;99.90;;;;;;5045769;28;20049;-69
2023/12/10 03:45:05;;;;;;;28.33;4.40;;;8.50;99.90;;;;;;5047258;28;20033;-69
2023/12/10 03:47:31;;;;;;;35.53;6.22;;;8.50;99.90;;;;;;5047320;28;20048;-69
2023/12/10 03:49:56;;;;;;;33.13;5.28;;;8.50;99.90;;;;;;5047177;28;20509;-70
2023/12/10 03:52:22;;;;;;;27.08;4.25;;;8.50;99.90;;;;;;5047029;28;20055;-69
2023/12/10 03:54:48;;;;;;;34.83;5.55;;;8.50;99.90;;;;;;5045705;28;20025;-70
2023/12/10 03:57:13;;;;;;;27.45;4.78;;;8.50;99.90;;;;;;5047106;28;20589;-69
2023/12/10 03:59:39;;;;;;;26.08;4.55;;;8.50;99.90;;;;;;5047202;28;20059;-68
2023/12/10 04:02:05;;;;;;;29.80;5.20;;;8.50;99.90;;;;;;5047075;28;20615;-69
2023/12/10 04:04:31;;;;;;;30.50;4.45;;;8.50;99.90;;;;;;5047114;28;20013;-69
2023/12/10 04:06:56;;;;;;;34.20;5.05;;;8.50;99.90;;;;;;5046631;28;20474;-69
2023/12/10 04:09:22;;;;;;;25.83;4.32;;;8.50;99.90;;;;;;5046947;28;20103;-70
2023/12/10 04:11:48;;;;;;;41.53;5.13;;;8.50;99.90;;;;;;5046390;28;20163;-68
2023/12/10 04:14:14;;;;;;;32.97;5.18;;;8.50;99.90;;;;;;5046969;28;20544;-70
2023/12/10 04:16:40;;;;;;;35.53;5.90;;;8.50;99.90;;;;;;5046285;28;20107;-70
2023/12/10 04:19:05;;;;;;;40.40;5.60;;;8.50;99.90;;;;;;5046925;28;20027;-70
2023/12/10 04:21:31;;;;;;;18.95;4.53;;;8.50;99.90;;;;;;5046535;28;20078;-70
2023/12/10 04:23:57;;;;;;;26.95;4.75;;;8.50;99.90;;;;;;5046662;28;20061;-70
2023/12/10 04:26:23;;;;;;;36.97;5.20;;;8.50;99.90;;;;;;5044956;28;20397;-70
2023/12/10 04:28:49;;;;;;;31.02;5.00;;;8.50;99.90;;;;;;5045290;28;20025;-69
2023/12/10 04:31:15;;;;;;;32.92;5.10;;;8.50;99.90;;;;;;5046392;28;20107;-70
2023/12/10 04:33:44;;;;;;;31.08;5.15;;;8.50;99.90;;;;;;5046600;28;20143;-70
2023/12/10 04:36:10;;;;;;;36.70;4.75;;;8.50;99.90;;;;;;5046303;28;20056;-70
2023/12/10 04:38:36;;;;;;;26.80;5.07;;;8.50;99.90;;;;;;5046309;28;20039;-70
2023/12/10 04:41:01;;;;;;;33.40;5.50;;;8.50;99.90;;;;;;5045312;28;20479;-70
2023/12/10 04:43:27;;;;;;;31.25;4.57;;;8.50;99.90;;;;;;5045039;28;20097;-70
2023/12/10 04:45:53;;;;;;;33.72;5.40;;;8.50;99.90;;;;;;5046513;28;20108;-70
2023/12/10 04:48:19;;;;;;;26.88;5.07;;;8.50;99.90;;;;;;5046149;28;20031;-70
2023/12/10 04:50:44;;;;;;;35.50;6.65;;;8.50;99.90;;;;;;5044797;28;20033;-70
2023/12/10 04:53:10;;;;;;;35.55;5.22;;;8.50;99.90;;;;;;5046510;28;20098;-71
2023/12/10 04:55:37;;;;;;;36.50;5.82;;;8.50;99.90;;;;;;5046177;28;20483;-69
2023/12/10 04:58:02;;;;;;;27.98;4.10;;;8.50;99.90;;;;;;5032599;28;20021;-70
2023/12/10 05:00:28;;;;;;;35.47;5.38;;;8.50;99.90;;;;;;5046307;28;20021;-70
2023/12/10 05:02:54;;;;;;;25.23;5.55;;;8.60;99.90;;;;;;5046411;28;20505;-70
2023/12/10 05:05:19;;;;;;;27.65;4.80;;;8.60;99.90;;;;;;5046657;28;20048;-70
2023/12/10 05:07:45;;;;;;;22.13;4.10;;;8.60;99.90;;;;;;5045891;28;20025;-69
2023/12/10 05:10:11;;;;;;;35.60;5.72;;;8.60;99.90;;;;;;5046558;28;20029;-70
2023/12/10 05:12:37;;;;;;;35.15;6.25;;;8.60;99.90;;;;;;5045977;28;20052;-70
2023/12/10 05:15:03;;;;;;;37.53;6.45;;;8.60;99.90;;;;;;5032312;28;20478;-70
2023/12/10 05:17:29;;;;;;;23.38;4.35;;;8.60;99.90;;;;;;5045936;28;20032;-70
2023/12/10 05:19:55;;;;;;;35.67;6.60;;;8.60;99.90;;;;;;5046078;28;20394;-70
2023/12/10 05:22:21;;;;;;;23.65;4.35;;;8.60;99.90;;;;;;5045797;28;20089;-70
2023/12/10 05:24:47;;;;;;;27.48;5.80;;;8.60;99.90;;;;;;5045995;28;20458;-70
2023/12/10 05:27:13;;;;;;;26.20;5.40;;;8.60;99.90;;;;;;5046188;28;20025;-70
2023/12/10 05:29:39;;;;;;;43.03;5.25;;;8.70;99.90;;;;;;5045847;28;20580;-70
2023/12/10 05:32:05;;;;;;;25.88;4.63;;;8.70;99.90;;;;;;5045928;28;20021;-71
2023/12/10 05:34:31;;;;;;;22.50;3.97;;;8.70;99.90;;;;;;5046228;28;20024;-70
2023/12/10 05:36:57;;;;;;;31.48;5.07;;;8.70;99.90;;;;;;5045319;28;20847;-71
2023/12/10 05:39:24;;;;;;;33.22;5.60;;;8.70;99.90;;;;;;5045763;28;20120;-70
2023/12/10 05:41:49;;;;;;;20.98;3.92;;;8.80;99.90;;;;;;5045526;28;20033;-71
2023/12/10 05:44:15;;;;;;;27.77;4.53;;;8.70;99.90;;;;;;5046161;28;20095;-71
2023/12/10 05:46:41;;;;;;;29.17;4.80;;;8.80;99.90;;;;;;5045707;28;20025;-71
2023/12/10 05:49:06;;;;;;;28.08;4.43;;;8.80;99.90;;;;;;5046027;28;20386;-71
2023/12/10 05:51:32;;;;;;;31.73;5.57;;;8.80;99.90;;;;;;5045544;28;20021;-71
2023/12/10 05:53:58;;;;;;;28.65;4.85;;;8.80;99.90;;;;;;5045743;28;20469;-71
2023/12/10 05:56:24;;;;;;;25.48;3.83;;;8.80;99.90;;;;;;5045676;28;20068;-71
2023/12/10 05:58:49;;;;;;;30.50;5.18;;;8.80;99.90;;;;;;5045542;28;20017;-71
2023/12/10 06:01:15;;;;;;;30.33;4.57;;;8.80;99.90;;;;;;5048733;28;20021;-71
2023/12/10 06:03:41;;;;;;;39.53;5.57;;;8.80;99.90;;;;;;5049352;28;20724;-71
2023/12/10 06:06:07;;;;;;;31.00;5.38;;;8.80;99.90;;;;;;5048869;28;20405;-71
2023/12/10 06:08:32;;;;;;;37.38;5.20;;;8.80;99.90;;;;;;5048983;28;20566;-71
2023/12/10 06:10:58;;;;;;;31.05;4.82;;;8.80;99.90;;;;;;5048686;28;20036;-70
2023/12/10 06:13:24;;;;;;;26.27;4.32;;;8.80;99.90;;;;;;5048804;28;20025;-71
2023/12/10 06:15:50;;;;;;;22.92;3.83;;;8.90;99.90;;;;;;5048264;28;20044;-70
2023/12/10 06:18:15;;;;;;;30.65;5.00;;;8.90;99.90;;;;;;5047316;28;20027;-70
2023/12/10 06:20:41;;;;;;;21.63;4.35;;;8.90;99.90;;;;;;5048822;28;20641;-70
2023/12/10 06:23:07;;;;;;;22.02;4.25;;;8.90;99.90;;;;;;5048580;28;20558;-71
2023/12/10 06:25:33;;;;;;;25.42;5.25;;;8.90;99.90;;;;;;5048897;28;20079;-71
2023/12/10 06:27:58;;;;;;;23.90;3.97;;;8.90;99.90;;;;;;5048592;28;20055;-71
2023/12/10 06:30:24;;;;;;;32.55;4.78;;;9.00;99.90;;;;;;5047292;28;20052;-71
2023/12/10 06:32:50;;;;;;;26.08;3.72;;;8.90;99.90;;;;;;5048577;28;20021;-71
2023/12/10 06:35:16;;;;;;;24.90;4.18;;;8.90;99.90;;;;;;5048514;28;20472;-70
2023/12/10 06:37:42;;;;;;;24.30;4.68;;;8.90;99.90;;;;;;5048607;28;20541;-70
2023/12/10 06:40:10;;;;;;;27.75;4.63;;;8.90;99.90;;;;;;5049625;28;20045;-70
2023/12/10 06:42:36;;;;;;;32.70;4.63;;;8.90;99.90;;;;;;5048844;28;20021;-70
2023/12/10 06:45:05;;;;;;;27.48;4.13;;;8.90;99.90;;;;;;5048627;28;20028;-70
2023/12/10 06:47:32;;;;;;;23.85;4.15;;;8.90;99.90;;;;;;5048211;28;20017;-70
2023/12/10 06:49:58;;;;;;;27.38;4.63;;;8.90;99.90;;;;;;5048736;28;20698;-71
2023/12/10 06:52:23;;;;;;;24.25;4.07;;;8.90;99.90;;;;;;5048353;28;20032;-71
2023/12/10 06:54:49;;;;;;;28.63;4.85;;;8.90;99.90;;;;;;5046771;28;20064;-70
2023/12/10 06:57:15;;;;;;;31.13;4.93;;;9.00;99.90;;;;;;5048289;28;20028;-70
2023/12/10 06:59:41;;;;;;;30.10;4.75;;;9.00;99.90;;;;;;5046960;28;20021;-70
2023/12/10 07:02:06;;;;;;;23.98;4.32;;;9.00;99.90;;;;;;5044957;28;20022;-71
2023/12/10 07:04:33;;;;;;;30.20;5.00;;;9.00;99.90;;;;;;5048230;28;20024;-70
2023/12/10 07:06:58;;;;;;;30.17;4.80;;;9.00;99.90;;;;;;5047890;28;20029;-70
2023/12/10 07:09:24;;;;;;;27.33;4.30;;;9.00;99.90;;;;;;5048189;28;20497;-71
2023/12/10 07:11:51;;;;;;;31.27;4.45;;;9.00;99.90;;;;;;5047567;28;20083;-70
2023/12/10 07:14:16;;;;;;;33.67;5.05;;;9.10;99.90;;;;;;5048220;28;20858;-70
2023/12/10 07:16:42;;;;;;;30.15;5.38;;;9.10;99.90;;;;;;5047381;28;20021;-71
2023/12/10 07:19:08;;;;;;;28.77;4.75;;;9.10;99.90;;;;;;5048489;28;20017;-71
2023/12/10 07:21:33;;;;;;;27.88;5.07;;;9.20;99.90;;;;;;5046314;28;20412;-70
2023/12/10 07:23:59;;;;;;;26.52;4.47;;;9.20;99.90;;;;;;5048215;28;20082;-70
2023/12/10 07:26:25;;;;;;;19.85;3.85;;;9.30;99.90;;;;;;5046366;28;20033;-71
2023/12/10 07:28:52;;;;;;;26.48;5.28;;;9.20;99.90;;;;;;5047980;28;20029;-71
2023/12/10 07:31:18;;;;;;;34.40;5.60;;;9.20;99.90;;;;;;5046014;28;20025;-71
2023/12/10 07:33:44;;;;;;;26.05;4.38;;;9.20;99.90;;;;;;5047738;28;20100;-70
2023/12/10 07:36:11;;;;;;;26.55;5.22;;;9.20;99.90;;;;;;5045977;28;20052;-71
2023/12/10 07:38:37;;;;;;;29.00;4.95;;;9.20;99.90;;;;;;5047306;28;20021;-71
2023/12/10 07:41:04;;;;;;;32.55;4.97;;;9.20;99.90;;;;;;5047990;28;20036;-70
2023/12/10 07:43:30;;;;;;;19.95;3.58;;;9.20;99.90;;;;;;5047558;28;20075;-71
2023/12/10 07:45:56;;;;;;;22.27;4.07;;;9.30;99.90;;;;;;5047486;28;20021;-71
2023/12/10 07:48:22;;;;;;;17.85;4.00;;;9.30;99.90;;;;;;5040131;28;20083;-72
2023/12/10 07:50:48;;;;;;;18.58;3.75;;;9.30;99.90;;;;;;5043900;28;20040;-70
2023/12/10 07:53:14;;;;;;;25.02;4.78;;;9.30;99.90;;;;;;5046451;28;20017;-71
2023/12/10 07:55:40;;;;;;;24.50;4.18;;;9.30;99.90;;;;;;5045153;28;20032;-71
2023/12/10 07:58:06;;;;;;;21.27;4.47;;;9.30;99.90;;;;;;5047432;28;20473;-70
2023/12/10 08:00:35;;;;;;;27.08;4.45;;;9.30;99.90;;;;;;5047129;28;20020;-71
2023/12/10 08:03:03;;;;;;;23.75;3.85;;;9.30;99.90;;;;;;5040178;28;20072;-71
2023/12/10 08:05:28;;;;;;;24.17;4.35;;;9.30;99.90;;;;;;5036905;28;20049;-71
2023/12/10 08:07:56;;;;;;;25.35;4.43;;;9.30;99.90;;;;;;5046777;28;20398;-70
2023/12/10 08:10:22;;;;;;;28.13;5.00;;;9.30;99.90;;;;;;5047295;28;20040;-71
2023/12/10 08:12:48;;;;;;;24.92;4.35;;;9.40;99.90;;;;;;5046290;28;20304;-71
2023/12/10 08:15:14;;;;;;;22.98;4.13;;;9.40;99.90;;;;;;5044857;28;20025;-71
2023/12/10 08:17:40;;;;;;;19.40;3.90;;;9.40;99.90;;;;;;5030095;28;20030;-70
2023/12/10 08:20:06;;;;;;;24.00;3.92;;;9.40;99.90;;;;;;5045658;28;20628;-71
2023/12/10 08:22:32;;;;;;;22.73;4.38;;;9.40;99.90;;;;;;5043569;28;20544;-71
2023/12/10 08:24:58;;;;;;;24.88;3.78;;;9.40;99.90;;;;;;5046409;28;20017;-71
2023/12/10 08:27:23;;;;;;;18.83;4.05;;;9.40;99.90;;;;;;5046229;28;20665;-71
2023/12/10 08:29:49;;;;;;;18.73;4.03;;;9.40;99.90;;;;;;5046266;28;20024;-71
2023/12/10 08:32:15;;;;;;;21.27;3.83;;;9.40;99.90;;;;;;5043171;28;20107;-70
2023/12/10 08:34:40;;;;;;;27.67;4.95;;;9.40;99.90;;;;;;5031657;28;20032;-70
2023/12/10 08:37:07;;;;;;;23.33;3.80;;;9.40;99.90;;;;;;5034603;28;20487;-71
2023/12/10 08:39:32;;;;;;;31.13;5.10;;;9.40;99.90;;;;;;5043815;28;20129;-71
2023/12/10 08:41:58;;;;;;;26.95;4.32;;;9.40;99.90;;;;;;5046271;28;20100;-71
2023/12/10 08:44:25;;;;;;;18.60;3.95;;;9.40;99.90;;;;;;5047108;28;20462;-71
2023/12/10 08:46:51;;;;;;;22.70;4.22;;;9.40;99.90;;;;;;5046053;28;20172;-71
2023/12/10 08:49:17;;;;;;;22.75;3.83;;;9.40;99.90;;;;;;5046528;28;20075;-71
2023/12/10 08:51:43;;;;;;;21.30;3.28;;;9.50;99.90;;;;;;5046168;28;20402;-71
2023/12/10 08:54:09;;;;;;;25.42;4.32;;;9.50;99.90;;;;;;5046447;28;20028;-71
2023/12/10 08:56:34;;;;;;;19.88;3.78;;;9.50;99.90;;;;;;5046197;28;20056;-71
2023/12/10 08:59:00;;;;;;;27.35;4.40;;;9.50;99.90;;;;;;5046612;28;20432;-71
2023/12/10 09:01:26;;;;;;;23.25;4.07;;;9.50;99.90;;;;;;5046423;28;20816;-72
2023/12/10 09:03:51;;;;;;;21.38;4.63;;;9.50;99.90;;;;;;5045985;28;20021;-71
2023/12/10 09:06:17;;;;;;;21.40;5.60;;;9.50;99.90;;;;;;5044898;28;20025;-72
2023/12/10 09:08:43;;;;;;;23.67;4.68;;;9.50;99.90;;;;;;5046237;28;20059;-71
2023/12/10 09:11:08;;;;;;;23.13;5.78;;;9.50;99.90;;;;;;5046283;28;20021;-71
2023/12/10 09:13:37;;;;;;;25.25;6.07;;;9.50;99.90;;;;;;5046074;28;20108;-71
2023/12/10 09:16:06;;;;;;;32.35;7.10;;;9.50;99.90;;;;;;5046102;28;20025;-71
2023/12/10 09:18:32;;;;;;;20.15;5.00;;;9.50;99.90;;;;;;5038660;28;20625;-71
2023/12/10 09:20:58;;;;;;;23.38;4.97;;;9.50;99.90;;;;;;5028768;28;20029;-71
2023/12/10 09:23:23;;;;;;;21.08;4.45;;;9.60;99.90;;;;;;5031044;28;20044;-70
2023/12/10 09:25:49;;;;;;;17.95;3.63;;;9.50;99.90;;;;;;5036657;28;20025;-71
2023/12/10 09:28:15;;;;;;;23.27;3.55;;;9.50;99.90;;;;;;5045740;28;20505;-71
2023/12/10 09:30:42;;;;;;;22.27;5.38;;;9.60;99.90;;;;;;5045577;28;20032;-71
2023/12/10 09:33:08;;;;;;;27.45;4.47;;;9.60;99.90;;;;;;5045486;28;20180;-72
2023/12/10 09:35:35;;;;;;;24.45;6.50;;;9.60;99.90;;;;;;5034400;28;20474;-71
2023/12/10 09:38:03;;;;;;;27.17;4.95;;;9.60;99.90;;;;;;5044366;28;20018;-72
2023/12/10 09:40:31;;;;;;;22.77;4.75;;;9.60;99.90;;;;;;5045660;28;20037;-71
2023/12/10 09:42:57;;;;;;;24.92;5.80;;;9.60;99.90;;;;;;5049424;28;20017;-71
2023/12/10 09:45:23;;;;;;;27.73;5.68;;;9.70;99.90;;;;;;5048305;28;20383;-71
2023/12/10 09:47:50;;;;;;;32.90;5.65;;;9.70;99.90;;;;;;5049215;28;20071;-71
2023/12/10 09:50:18;;;;;;;21.40;4.80;;;9.70;99.90;;;;;;5048257;28;20082;-72
2023/12/10 09:52:44;;;;;;;21.27;4.70;;;9.70;99.90;;;;;;5049069;28;20043;-72
2023/12/10 09:55:10;;;;;;;21.58;4.45;;;9.70;99.90;;;;;;5049679;28;20021;-71
2023/12/10 09:57:36;;;;;;;23.00;4.28;;;9.70;99.90;;;;;;5041777;28;20033;-71
2023/12/10 10:00:02;;;;;;;18.85;3.88;;;9.70;99.90;;;;;;5038668;28;20021;-72
2023/12/10 10:02:32;;;;;;;22.23;4.03;;;9.70;99.90;;;;;;5046883;28;20136;-72
2023/12/10 10:04:58;;;;;;;22.70;4.20;;;9.70;99.90;;;;;;5047843;28;20028;-72
2023/12/10 10:07:23;;;;;;;25.13;6.32;;;9.70;99.90;;;;;;5043889;28;20037;-71
2023/12/10 10:09:51;;;;;;;26.45;4.93;;;9.70;99.90;;;;;;5037130;28;20020;-72
2023/12/10 10:12:16;;;;;;;22.05;4.68;;;9.70;99.90;;;;;;5048771;28;20495;-72
2023/12/10 10:15:03;;;;;;;19.92;4.63;;;9.80;99.90;;;;;;5049294;28;20091;-72
2023/12/10 10:17:36;;;;;;;28.60;4.38;;;9.70;99.90;;;;;;5048731;28;20039;-71
2023/12/10 10:20:05;;;;;;;20.45;4.55;;;9.70;99.90;;;;;;5049054;28;20075;-72
2023/12/10 10:22:32;;;;;;;21.27;3.35;;;9.70;99.90;;;;;;5039523;28;20021;-72
2023/12/10 10:24:58;;;;;;;18.92;4.40;;;9.70;99.90;;;;;;5037446;28;20043;-72
2023/12/10 10:27:24;;;;;;;21.48;4.13;;;9.80;99.90;;;;;;5040022;28;20056;-72
2023/12/10 10:29:53;;;;;;;22.83;4.15;;;9.80;99.90;;;;;;5036999;28;20029;-72
2023/12/10 10:32:23;;;;;;;27.67;5.40;;;9.80;99.90;;;;;;5039625;28;20031;-72
2023/12/10 10:34:50;;;;;;;23.77;3.67;;;9.80;99.90;;;;;;5037518;28;20029;-72
2023/12/10 10:37:17;;;;;;;26.42;4.65;;;9.80;99.90;;;;;;5046975;28;20651;-72
2023/12/10 10:39:44;;;;;;;22.60;3.97;;;9.80;99.90;;;;;;5046011;28;20044;-72
2023/12/10 10:42:10;;;;;;;19.92;3.80;;;9.80;99.90;;;;;;5043465;28;20039;-72
2023/12/10 10:44:39;;;;;;;32.85;4.60;;;9.80;99.90;;;;;;5048336;28;20025;-71
2023/12/10 10:47:06;;;;;;;23.50;4.70;;;9.90;99.90;;;;;;5046441;28;20497;-72
2023/12/10 10:49:34;;;;;;;25.20;4.80;;;9.90;99.90;;;;;;5037802;28;20029;-72
2023/12/10 10:52:03;;;;;;;24.92;4.97;;;9.90;99.90;;;;;;5048324;28;20254;-71
2023/12/10 10:54:29;;;;;;;24.08;4.72;;;9.90;99.90;;;;;;5048731;28;20025;-72
2023/12/10 10:56:55;;;;;;;20.95;4.00;;;10.00;99.90;;;;;;5048629;28;20025;-72
2023/12/10 10:59:29;;;;;;;25.85;4.03;;;9.90;99.90;;;;;;5048194;28;20457;-72
2023/12/10 11:01:57;;;;;;;31.67;7.63;;;10.00;99.90;;;;;;5047805;28;20489;-72
2023/12/10 11:04:22;;;;;;;24.65;4.97;;;10.00;99.90;;;;;;5036956;28;20025;-72
2023/12/10 11:06:50;;;;;;;25.23;5.10;;;10.10;99.90;;;;;;5036613;28;20043;-72
2023/12/10 11:09:17;;;;;;;20.30;4.43;;;10.10;99.90;;;;;;5046361;28;20028;-72
2023/12/10 11:11:43;;;;;;;24.27;4.70;;;10.10;99.90;;;;;;5046318;28;20032;-72
2023/12/10 11:14:20;;;;;;;24.48;5.72;;;10.10;99.90;;;;;;5033993;28;20025;-71
2023/12/10 11:17:06;;;;;;;27.33;5.45;;;10.20;99.90;;;;;;5042985;28;20090;-72
2023/12/10 11:19:32;;;;;;;19.23;3.72;;;10.40;99.90;;;;;;5046337;28;20070;-71
2023/12/10 11:21:59;;;;;;;22.50;4.45;;;10.40;99.90;;;;;;5029364;28;20079;-71
2023/12/10 11:24:25;;;;;;;31.92;4.75;;;10.40;99.90;;;;;;5040738;28;20029;-72
2023/12/10 11:26:51;;;;;;;20.60;3.83;;;10.40;99.90;;;;;;5046190;28;20501;-72
2023/12/10 11:29:17;;;;;;;27.20;5.10;;;10.50;99.90;;;;;;5046741;28;20053;-72
2023/12/10 11:31:46;;;;;;;20.42;3.85;;;10.60;99.90;;;;;;5044002;28;20021;-72
2023/12/10 11:34:11;;;;;;;24.90;4.22;;;10.50;99.90;;;;;;5044987;28;20021;-72
2023/12/10 11:36:38;;;;;;;24.08;3.58;;;10.50;99.90;;;;;;5047005;28;20075;-72
2023/12/10 11:39:13;;;;;;;19.00;4.00;;;10.50;99.90;;;;;;5043049;28;20202;-72
2023/12/10 11:41:41;;;;;;;18.23;3.33;;;10.50;99.90;;;;;;5036919;28;20616;-72
2023/12/10 11:44:07;;;;;;;26.65;4.05;;;10.70;99.90;;;;;;5046956;28;20025;-72
2023/12/10 11:46:32;;;;;;;22.58;3.67;;;10.70;99.90;;;;;;5047587;28;20028;-72
2023/12/10 11:48:58;;;;;;;26.63;4.05;;;10.80;99.90;;;;;;5046557;28;20528;-72
2023/12/10 11:51:24;;;;;;;25.25;5.47;;;10.90;99.90;;;;;;5042574;28;20070;-72
2023/12/10 11:53:50;;;;;;;19.20;3.65;;;11.00;99.90;;;;;;5046535;28;20082;-72
2023/12/10 11:56:16;;;;;;;25.23;3.67;;;11.00;99.90;;;;;;5047074;28;20032;-71
2023/12/10 11:58:45;;;;;;;22.05;3.47;;;11.20;99.90;;;;;;5045515;28;20170;-71
2023/12/10 12:01:10;;;;;;;18.42;3.10;;;11.20;99.90;;;;;;5036901;28;20390;-72
2023/12/10 12:03:37;;;;;;;16.33;3.80;;;11.20;99.90;;;;;;5046532;28;20043;-71
2023/12/10 12:06:04;;;;;;;20.02;4.20;;;11.10;99.90;;;;;;5045568;28;20024;-72
2023/12/10 12:08:30;;;;;;;21.48;3.95;;;11.00;99.90;;;;;;5034486;28;20057;-72
2023/12/10 12:10:57;;;;;;;17.77;3.25;;;10.90;99.90;;;;;;5043554;28;20072;-72
2023/12/10 12:13:24;;;;;;;33.58;4.43;;;10.80;99.90;;;;;;5032452;28;20025;-72
2023/12/10 12:15:51;;;;;;;18.50;2.60;;;10.80;99.90;;;;;;5036923;28;20033;-72
2023/12/10 12:18:17;;;;;;;16.02;3.42;;;10.80;99.90;;;;;;5033655;28;20028;-71
2023/12/10 12:20:46;;;;;;;25.48;4.18;;;10.80;99.90;;;;;;5029064;28;20026;-71
2023/12/10 12:23:12;;;;;;;18.85;3.42;;;10.90;99.90;;;;;;5028845;28;20025;-71
2023/12/10 12:25:38;;;;;;;19.70;3.17;;;10.90;99.90;;;;;;5031732;28;20126;-71
2023/12/10 12:28:07;;;;;;;20.05;3.58;;;11.00;99.90;;;;;;5041378;28;20049;-71
2023/12/10 12:30:34;;;;;;;17.08;3.85;;;11.10;99.90;;;;;;5034903;28;20449;-71
2023/12/10 12:33:00;;;;;;;20.65;3.38;;;11.10;99.90;;;;;;5045986;28;20029;-71
2023/12/10 12:35:26;;;;;;;17.67;3.33;;;11.10;99.90;;;;;;5032679;28;20136;-72
2023/12/10 12:37:52;;;;;;;19.98;4.63;;;11.10;99.90;;;;;;5037361;28;20021;-72
2023/12/10 12:40:20;;;;;;;16.08;2.80;;;11.00;99.90;;;;;;5044237;28;20024;-72